sensor_id;sensor_type;location;lat;lon;timestamp;P1;durP1;ratioP1;P2;durP2;ratioP2
24137;SDS011;17947;50.672;6.076;2022-08-20T00:01:40;1.55;;;1.45;;
24137;SDS011;17947;50.672;6.076;2022-08-20T00:04:06;1.05;;;1.05;;
24137;SDS011;17947;50.672;6.076;2022-08-20T00:06:32;1.50;;;1.40;;
24137;SDS011;17947;50.672;6.076;2022-08-20T00:08:58;1.70;;;1.60;;
24137;SDS011;17947;50.672;6.076;2022-08-20T00:11:25;1.40;;;1.30;;
24137;SDS011;17947;50.672;6.076;2022-08-20T00:13:53;1.30;;;1.20;;
24137;SDS011;17947;50.672;6.076;2022-08-20T00:16:21;1.65;;;1.48;;
24137;SDS011;17947;50.672;6.076;2022-08-20T00:18:48;1.35;;;1.25;;
24137;SDS011;17947;50.672;6.076;2022-08-20T00:21:15;2.35;;;1.60;;
24137;SDS011;17947;50.672;6.076;2022-08-20T00:23:43;1.52;;;1.42;;
24137;SDS011;17947;50.672;6.076;2022-08-20T00:26:10;1.80;;;1.70;;
24137;SDS011;17947;50.672;6.076;2022-08-20T00:28:36;1.35;;;1.25;;
24137;SDS011;17947;50.672;6.076;2022-08-20T00:31:04;1.60;;;1.50;;
24137;SDS011;17947;50.672;6.076;2022-08-20T00:33:31;1.70;;;1.27;;
24137;SDS011;17947;50.672;6.076;2022-08-20T00:35:57;1.50;;;1.40;;
24137;SDS011;17947;50.672;6.076;2022-08-20T00:38:30;1.50;;;1.40;;
24137;SDS011;17947;50.672;6.076;2022-08-20T00:40:57;1.58;;;1.48;;
24137;SDS011;17947;50.672;6.076;2022-08-20T00:45:59;1.42;;;1.33;;
24137;SDS011;17947;50.672;6.076;2022-08-20T00:48:26;1.63;;;1.52;;
24137;SDS011;17947;50.672;6.076;2022-08-20T00:50:53;1.38;;;1.27;;
24137;SDS011;17947;50.672;6.076;2022-08-20T00:53:21;1.40;;;1.30;;
24137;SDS011;17947;50.672;6.076;2022-08-20T00:55:48;1.60;;;1.50;;
24137;SDS011;17947;50.672;6.076;2022-08-20T00:58:14;1.50;;;1.40;;
24137;SDS011;17947;50.672;6.076;2022-08-20T01:00:42;1.50;;;1.40;;
24137;SDS011;17947;50.672;6.076;2022-08-20T01:03:11;1.73;;;1.63;;
24137;SDS011;17947;50.672;6.076;2022-08-20T01:05:40;1.65;;;1.30;;
24137;SDS011;17947;50.672;6.076;2022-08-20T01:08:06;1.60;;;1.50;;
24137;SDS011;17947;50.672;6.076;2022-08-20T01:10:34;1.60;;;1.40;;
24137;SDS011;17947;50.672;6.076;2022-08-20T01:13:03;1.60;;;1.50;;
24137;SDS011;17947;50.672;6.076;2022-08-20T01:15:34;2.38;;;1.65;;
24137;SDS011;17947;50.672;6.076;2022-08-20T01:18:01;1.42;;;1.30;;
24137;SDS011;17947;50.672;6.076;2022-08-20T01:20:29;1.52;;;1.42;;
24137;SDS011;17947;50.672;6.076;2022-08-20T01:23:02;1.90;;;1.48;;
24137;SDS011;17947;50.672;6.076;2022-08-20T01:25:57;1.80;;;1.70;;
24137;SDS011;17947;50.672;6.076;2022-08-20T01:28:33;1.85;;;1.58;;
24137;SDS011;17947;50.672;6.076;2022-08-20T01:30:59;2.75;;;1.98;;
24137;SDS011;17947;50.672;6.076;2022-08-20T01:33:26;1.88;;;1.77;;
24137;SDS011;17947;50.672;6.076;2022-08-20T01:35:52;1.95;;;1.75;;
24137;SDS011;17947;50.672;6.076;2022-08-20T01:38:18;2.00;;;1.80;;
24137;SDS011;17947;50.672;6.076;2022-08-20T01:40:54;1.77;;;1.67;;
24137;SDS011;17947;50.672;6.076;2022-08-20T01:43:23;1.58;;;1.48;;
24137;SDS011;17947;50.672;6.076;2022-08-20T01:45:50;2.03;;;1.80;;
24137;SDS011;17947;50.672;6.076;2022-08-20T01:48:16;1.98;;;1.80;;
24137;SDS011;17947;50.672;6.076;2022-08-20T01:50:43;1.83;;;1.73;;
24137;SDS011;17947;50.672;6.076;2022-08-20T01:53:27;2.40;;;1.80;;
24137;SDS011;17947;50.672;6.076;2022-08-20T01:55:57;1.88;;;1.77;;
24137;SDS011;17947;50.672;6.076;2022-08-20T01:58:23;1.88;;;1.75;;
24137;SDS011;17947;50.672;6.076;2022-08-20T02:00:51;2.22;;;1.80;;
24137;SDS011;17947;50.672;6.076;2022-08-20T02:03:17;2.00;;;1.90;;
24137;SDS011;17947;50.672;6.076;2022-08-20T02:05:43;2.70;;;1.85;;
24137;SDS011;17947;50.672;6.076;2022-08-20T02:08:09;2.05;;;1.85;;
24137;SDS011;17947;50.672;6.076;2022-08-20T02:10:35;1.73;;;1.63;;
24137;SDS011;17947;50.672;6.076;2022-08-20T02:13:02;2.08;;;1.80;;
24137;SDS011;17947;50.672;6.076;2022-08-20T02:15:29;2.50;;;1.90;;
24137;SDS011;17947;50.672;6.076;2022-08-20T02:17:55;2.08;;;1.88;;
24137;SDS011;17947;50.672;6.076;2022-08-20T02:20:23;1.95;;;1.85;;
24137;SDS011;17947;50.672;6.076;2022-08-20T02:22:53;2.80;;;1.80;;
24137;SDS011;17947;50.672;6.076;2022-08-20T02:25:20;2.20;;;2.00;;
24137;SDS011;17947;50.672;6.076;2022-08-20T02:27:48;2.10;;;1.90;;
24137;SDS011;17947;50.672;6.076;2022-08-20T02:30:15;2.30;;;2.10;;
24137;SDS011;17947;50.672;6.076;2022-08-20T02:32:43;2.90;;;2.08;;
24137;SDS011;17947;50.672;6.076;2022-08-20T02:35:09;1.85;;;1.70;;
24137;SDS011;17947;50.672;6.076;2022-08-20T02:37:37;2.55;;;1.95;;
24137;SDS011;17947;50.672;6.076;2022-08-20T02:40:05;2.10;;;1.98;;
24137;SDS011;17947;50.672;6.076;2022-08-20T02:42:32;2.10;;;1.92;;
24137;SDS011;17947;50.672;6.076;2022-08-20T02:44:58;1.83;;;1.73;;
24137;SDS011;17947;50.672;6.076;2022-08-20T02:47:24;2.30;;;2.10;;
24137;SDS011;17947;50.672;6.076;2022-08-20T02:49:52;2.30;;;2.10;;
24137;SDS011;17947;50.672;6.076;2022-08-20T02:52:18;2.17;;;1.95;;
24137;SDS011;17947;50.672;6.076;2022-08-20T02:54:44;3.00;;;2.50;;
24137;SDS011;17947;50.672;6.076;2022-08-20T02:57:11;2.97;;;2.17;;
24137;SDS011;17947;50.672;6.076;2022-08-20T02:59:38;2.40;;;2.20;;
24137;SDS011;17947;50.672;6.076;2022-08-20T03:02:04;2.53;;;2.30;;
24137;SDS011;17947;50.672;6.076;2022-08-20T03:04:30;2.70;;;2.33;;
24137;SDS011;17947;50.672;6.076;2022-08-20T03:06:56;2.38;;;2.17;;
24137;SDS011;17947;50.672;6.076;2022-08-20T03:09:23;2.30;;;2.10;;
24137;SDS011;17947;50.672;6.076;2022-08-20T03:11:49;2.50;;;2.30;;
24137;SDS011;17947;50.672;6.076;2022-08-20T03:14:15;2.30;;;2.10;;
24137;SDS011;17947;50.672;6.076;2022-08-20T03:16:41;2.22;;;2.03;;
24137;SDS011;17947;50.672;6.076;2022-08-20T03:19:07;2.35;;;2.10;;
24137;SDS011;17947;50.672;6.076;2022-08-20T03:21:33;2.42;;;2.22;;
24137;SDS011;17947;50.672;6.076;2022-08-20T03:23:59;2.53;;;2.33;;
24137;SDS011;17947;50.672;6.076;2022-08-20T03:26:25;2.40;;;2.20;;
24137;SDS011;17947;50.672;6.076;2022-08-20T03:28:51;2.17;;;1.98;;
24137;SDS011;17947;50.672;6.076;2022-08-20T03:31:17;2.88;;;2.20;;
24137;SDS011;17947;50.672;6.076;2022-08-20T03:33:43;2.28;;;2.08;;
24137;SDS011;17947;50.672;6.076;2022-08-20T03:36:09;3.42;;;2.10;;
24137;SDS011;17947;50.672;6.076;2022-08-20T03:38:35;2.20;;;1.98;;
24137;SDS011;17947;50.672;6.076;2022-08-20T03:41:02;2.30;;;2.10;;
24137;SDS011;17947;50.672;6.076;2022-08-20T03:43:28;2.80;;;2.50;;
24137;SDS011;17947;50.672;6.076;2022-08-20T03:45:54;2.90;;;2.40;;
24137;SDS011;17947;50.672;6.076;2022-08-20T03:48:20;2.25;;;2.05;;
24137;SDS011;17947;50.672;6.076;2022-08-20T03:50:47;2.30;;;2.10;;
24137;SDS011;17947;50.672;6.076;2022-08-20T03:53:14;2.40;;;2.20;;
24137;SDS011;17947;50.672;6.076;2022-08-20T03:55:40;2.65;;;2.45;;
24137;SDS011;17947;50.672;6.076;2022-08-20T03:58:07;2.78;;;2.58;;
24137;SDS011;17947;50.672;6.076;2022-08-20T04:00:35;2.70;;;2.50;;
24137;SDS011;17947;50.672;6.076;2022-08-20T04:03:02;2.78;;;2.40;;
24137;SDS011;17947;50.672;6.076;2022-08-20T04:05:28;2.47;;;2.28;;
24137;SDS011;17947;50.672;6.076;2022-08-20T04:07:56;3.00;;;2.70;;
24137;SDS011;17947;50.672;6.076;2022-08-20T04:10:23;2.90;;;2.60;;
24137;SDS011;17947;50.672;6.076;2022-08-20T04:12:49;3.00;;;2.70;;
24137;SDS011;17947;50.672;6.076;2022-08-20T04:15:16;2.60;;;2.40;;
24137;SDS011;17947;50.672;6.076;2022-08-20T04:17:43;2.58;;;2.38;;
24137;SDS011;17947;50.672;6.076;2022-08-20T04:20:11;4.03;;;2.90;;
24137;SDS011;17947;50.672;6.076;2022-08-20T04:22:38;2.92;;;2.65;;
24137;SDS011;17947;50.672;6.076;2022-08-20T04:25:05;3.10;;;2.80;;
24137;SDS011;17947;50.672;6.076;2022-08-20T04:27:33;3.13;;;2.65;;
24137;SDS011;17947;50.672;6.076;2022-08-20T04:29:59;3.15;;;2.85;;
24137;SDS011;17947;50.672;6.076;2022-08-20T04:32:27;3.22;;;2.92;;
24137;SDS011;17947;50.672;6.076;2022-08-20T04:34:53;3.42;;;3.00;;
24137;SDS011;17947;50.672;6.076;2022-08-20T04:37:20;3.60;;;2.90;;
24137;SDS011;17947;50.672;6.076;2022-08-20T04:39:47;3.70;;;3.17;;
24137;SDS011;17947;50.672;6.076;2022-08-20T04:42:34;3.78;;;3.30;;
24137;SDS011;17947;50.672;6.076;2022-08-20T04:45:00;3.30;;;3.00;;
24137;SDS011;17947;50.672;6.076;2022-08-20T04:47:26;3.33;;;3.00;;
24137;SDS011;17947;50.672;6.076;2022-08-20T04:49:52;3.30;;;3.00;;
24137;SDS011;17947;50.672;6.076;2022-08-20T04:52:24;3.58;;;2.88;;
24137;SDS011;17947;50.672;6.076;2022-08-20T04:54:50;3.22;;;2.92;;
24137;SDS011;17947;50.672;6.076;2022-08-20T04:57:16;3.17;;;2.88;;
24137;SDS011;17947;50.672;6.076;2022-08-20T04:59:42;3.00;;;2.70;;
24137;SDS011;17947;50.672;6.076;2022-08-20T05:02:09;2.85;;;2.65;;
24137;SDS011;17947;50.672;6.076;2022-08-20T05:04:36;3.10;;;2.80;;
24137;SDS011;17947;50.672;6.076;2022-08-20T05:07:02;2.70;;;2.50;;
24137;SDS011;17947;50.672;6.076;2022-08-20T05:09:28;3.28;;;2.88;;
24137;SDS011;17947;50.672;6.076;2022-08-20T05:11:56;4.00;;;2.95;;
24137;SDS011;17947;50.672;6.076;2022-08-20T05:14:22;3.78;;;2.53;;
24137;SDS011;17947;50.672;6.076;2022-08-20T05:16:48;2.72;;;2.40;;
24137;SDS011;17947;50.672;6.076;2022-08-20T05:19:17;2.60;;;2.40;;
24137;SDS011;17947;50.672;6.076;2022-08-20T05:21:43;2.88;;;2.67;;
24137;SDS011;17947;50.672;6.076;2022-08-20T05:24:09;2.85;;;2.50;;
24137;SDS011;17947;50.672;6.076;2022-08-20T05:26:35;2.67;;;2.38;;
24137;SDS011;17947;50.672;6.076;2022-08-20T05:29:02;3.40;;;2.30;;
24137;SDS011;17947;50.672;6.076;2022-08-20T05:31:29;2.60;;;2.40;;
24137;SDS011;17947;50.672;6.076;2022-08-20T05:33:57;2.70;;;2.50;;
24137;SDS011;17947;50.672;6.076;2022-08-20T05:36:23;2.50;;;2.30;;
24137;SDS011;17947;50.672;6.076;2022-08-20T05:38:49;3.17;;;2.60;;
24137;SDS011;17947;50.672;6.076;2022-08-20T05:41:16;2.47;;;2.28;;
24137;SDS011;17947;50.672;6.076;2022-08-20T05:43:42;3.00;;;2.28;;
24137;SDS011;17947;50.672;6.076;2022-08-20T05:46:09;2.50;;;2.30;;
24137;SDS011;17947;50.672;6.076;2022-08-20T05:48:35;2.53;;;2.33;;
24137;SDS011;17947;50.672;6.076;2022-08-20T05:51:01;2.47;;;2.28;;
24137;SDS011;17947;50.672;6.076;2022-08-20T05:53:27;2.50;;;2.30;;
24137;SDS011;17947;50.672;6.076;2022-08-20T05:55:53;2.65;;;2.45;;
24137;SDS011;17947;50.672;6.076;2022-08-20T05:58:23;3.13;;;2.40;;
24137;SDS011;17947;50.672;6.076;2022-08-20T06:00:50;2.50;;;2.30;;
24137;SDS011;17947;50.672;6.076;2022-08-20T06:03:16;2.45;;;2.25;;
24137;SDS011;17947;50.672;6.076;2022-08-20T06:06:01;2.30;;;2.10;;
24137;SDS011;17947;50.672;6.076;2022-08-20T06:08:28;2.88;;;2.45;;
24137;SDS011;17947;50.672;6.076;2022-08-20T06:10:54;2.50;;;2.30;;
24137;SDS011;17947;50.672;6.076;2022-08-20T06:13:20;2.58;;;2.38;;
24137;SDS011;17947;50.672;6.076;2022-08-20T06:15:46;2.50;;;2.30;;
24137;SDS011;17947;50.672;6.076;2022-08-20T06:18:12;2.33;;;2.13;;
24137;SDS011;17947;50.672;6.076;2022-08-20T06:20:38;2.42;;;2.15;;
24137;SDS011;17947;50.672;6.076;2022-08-20T06:23:05;2.58;;;2.30;;
24137;SDS011;17947;50.672;6.076;2022-08-20T06:25:31;2.63;;;2.42;;
24137;SDS011;17947;50.672;6.076;2022-08-20T06:28:01;2.65;;;2.45;;
24137;SDS011;17947;50.672;6.076;2022-08-20T06:30:27;2.83;;;2.30;;
24137;SDS011;17947;50.672;6.076;2022-08-20T06:32:53;2.78;;;2.47;;
24137;SDS011;17947;50.672;6.076;2022-08-20T06:35:19;3.00;;;2.47;;
24137;SDS011;17947;50.672;6.076;2022-08-20T06:37:45;2.83;;;2.55;;
24137;SDS011;17947;50.672;6.076;2022-08-20T06:40:14;2.70;;;2.35;;
24137;SDS011;17947;50.672;6.076;2022-08-20T06:42:40;2.45;;;2.25;;
24137;SDS011;17947;50.672;6.076;2022-08-20T06:45:10;2.72;;;2.53;;
24137;SDS011;17947;50.672;6.076;2022-08-20T06:47:40;3.15;;;2.40;;
24137;SDS011;17947;50.672;6.076;2022-08-20T06:50:07;2.80;;;2.55;;
24137;SDS011;17947;50.672;6.076;2022-08-20T06:52:34;3.20;;;2.90;;
24137;SDS011;17947;50.672;6.076;2022-08-20T06:55:02;2.40;;;2.20;;
24137;SDS011;17947;50.672;6.076;2022-08-20T06:57:28;4.72;;;2.58;;
24137;SDS011;17947;50.672;6.076;2022-08-20T06:59:54;3.55;;;2.40;;
24137;SDS011;17947;50.672;6.076;2022-08-20T07:02:21;3.33;;;2.70;;
24137;SDS011;17947;50.672;6.076;2022-08-20T07:04:48;3.17;;;2.65;;
24137;SDS011;17947;50.672;6.076;2022-08-20T07:07:15;3.03;;;2.38;;
24137;SDS011;17947;50.672;6.076;2022-08-20T07:09:41;2.58;;;2.38;;
24137;SDS011;17947;50.672;6.076;2022-08-20T07:12:08;5.03;;;2.67;;
24137;SDS011;17947;50.672;6.076;2022-08-20T07:14:34;3.03;;;2.67;;
24137;SDS011;17947;50.672;6.076;2022-08-20T07:17:01;3.15;;;2.50;;
24137;SDS011;17947;50.672;6.076;2022-08-20T07:19:27;3.65;;;2.83;;
24137;SDS011;17947;50.672;6.076;2022-08-20T07:21:53;2.83;;;2.55;;
24137;SDS011;17947;50.672;6.076;2022-08-20T07:24:19;2.53;;;2.33;;
24137;SDS011;17947;50.672;6.076;2022-08-20T07:26:45;2.38;;;2.08;;
24137;SDS011;17947;50.672;6.076;2022-08-20T07:29:12;2.50;;;2.30;;
24137;SDS011;17947;50.672;6.076;2022-08-20T07:31:38;2.55;;;2.35;;
24137;SDS011;17947;50.672;6.076;2022-08-20T07:34:31;2.78;;;2.20;;
24137;SDS011;17947;50.672;6.076;2022-08-20T07:36:57;2.55;;;2.35;;
24137;SDS011;17947;50.672;6.076;2022-08-20T07:39:24;2.40;;;2.17;;
24137;SDS011;17947;50.672;6.076;2022-08-20T07:41:50;2.60;;;2.30;;
24137;SDS011;17947;50.672;6.076;2022-08-20T07:44:27;3.25;;;2.33;;
24137;SDS011;17947;50.672;6.076;2022-08-20T07:49:38;2.38;;;2.17;;
24137;SDS011;17947;50.672;6.076;2022-08-20T07:52:05;2.47;;;2.28;;
24137;SDS011;17947;50.672;6.076;2022-08-20T07:54:31;3.80;;;2.30;;
24137;SDS011;17947;50.672;6.076;2022-08-20T07:57:01;3.25;;;2.58;;
24137;SDS011;17947;50.672;6.076;2022-08-20T07:59:28;2.97;;;2.35;;
24137;SDS011;17947;50.672;6.076;2022-08-20T08:01:54;2.80;;;2.10;;
24137;SDS011;17947;50.672;6.076;2022-08-20T08:04:20;4.50;;;2.75;;
24137;SDS011;17947;50.672;6.076;2022-08-20T08:06:50;3.85;;;2.40;;
24137;SDS011;17947;50.672;6.076;2022-08-20T08:09:16;2.75;;;2.53;;
24137;SDS011;17947;50.672;6.076;2022-08-20T08:11:46;3.38;;;2.35;;
24137;SDS011;17947;50.672;6.076;2022-08-20T08:14:14;3.45;;;2.50;;
24137;SDS011;17947;50.672;6.076;2022-08-20T08:16:42;2.70;;;2.50;;
24137;SDS011;17947;50.672;6.076;2022-08-20T08:19:09;4.07;;;2.53;;
24137;SDS011;17947;50.672;6.076;2022-08-20T08:21:36;3.97;;;2.85;;
24137;SDS011;17947;50.672;6.076;2022-08-20T08:24:03;3.72;;;2.42;;
24137;SDS011;17947;50.672;6.076;2022-08-20T08:26:29;2.95;;;2.65;;
24137;SDS011;17947;50.672;6.076;2022-08-20T08:28:55;3.83;;;2.53;;
24137;SDS011;17947;50.672;6.076;2022-08-20T08:31:25;2.45;;;2.25;;
24137;SDS011;17947;50.672;6.076;2022-08-20T08:33:51;3.03;;;2.45;;
24137;SDS011;17947;50.672;6.076;2022-08-20T08:36:17;3.75;;;2.63;;
24137;SDS011;17947;50.672;6.076;2022-08-20T08:38:44;3.03;;;2.60;;
24137;SDS011;17947;50.672;6.076;2022-08-20T08:41:31;3.28;;;2.45;;
24137;SDS011;17947;50.672;6.076;2022-08-20T08:46:27;4.22;;;2.70;;
24137;SDS011;17947;50.672;6.076;2022-08-20T08:48:56;3.75;;;2.33;;
24137;SDS011;17947;50.672;6.076;2022-08-20T08:51:27;3.35;;;2.60;;
24137;SDS011;17947;50.672;6.076;2022-08-20T08:53:55;4.40;;;2.90;;
24137;SDS011;17947;50.672;6.076;2022-08-20T08:56:28;3.53;;;3.00;;
24137;SDS011;17947;50.672;6.076;2022-08-20T08:59:01;6.03;;;2.55;;
24137;SDS011;17947;50.672;6.076;2022-08-20T09:01:28;3.40;;;2.60;;
24137;SDS011;17947;50.672;6.076;2022-08-20T09:03:56;3.45;;;2.53;;
24137;SDS011;17947;50.672;6.076;2022-08-20T09:06:22;3.67;;;2.47;;
24137;SDS011;17947;50.672;6.076;2022-08-20T09:08:51;3.20;;;2.75;;
24137;SDS011;17947;50.672;6.076;2022-08-20T09:11:18;3.53;;;2.55;;
24137;SDS011;17947;50.672;6.076;2022-08-20T09:13:44;4.57;;;2.60;;
24137;SDS011;17947;50.672;6.076;2022-08-20T09:16:11;4.15;;;2.80;;
24137;SDS011;17947;50.672;6.076;2022-08-20T09:18:37;4.10;;;3.15;;
24137;SDS011;17947;50.672;6.076;2022-08-20T09:21:04;4.75;;;3.25;;
24137;SDS011;17947;50.672;6.076;2022-08-20T09:23:30;3.85;;;2.85;;
24137;SDS011;17947;50.672;6.076;2022-08-20T09:25:56;3.22;;;2.85;;
24137;SDS011;17947;50.672;6.076;2022-08-20T09:28:22;3.42;;;2.85;;
24137;SDS011;17947;50.672;6.076;2022-08-20T09:30:49;4.13;;;2.72;;
24137;SDS011;17947;50.672;6.076;2022-08-20T09:33:15;4.57;;;2.85;;
24137;SDS011;17947;50.672;6.076;2022-08-20T09:35:41;4.47;;;2.72;;
24137;SDS011;17947;50.672;6.076;2022-08-20T09:38:09;4.72;;;3.00;;
24137;SDS011;17947;50.672;6.076;2022-08-20T09:40:36;3.65;;;2.40;;
24137;SDS011;17947;50.672;6.076;2022-08-20T09:43:04;3.25;;;2.40;;
24137;SDS011;17947;50.672;6.076;2022-08-20T09:45:30;3.97;;;2.50;;
24137;SDS011;17947;50.672;6.076;2022-08-20T09:47:56;3.97;;;2.65;;
24137;SDS011;17947;50.672;6.076;2022-08-20T09:50:23;4.65;;;2.58;;
24137;SDS011;17947;50.672;6.076;2022-08-20T09:52:49;4.55;;;2.50;;
24137;SDS011;17947;50.672;6.076;2022-08-20T09:55:21;3.53;;;2.45;;
24137;SDS011;17947;50.672;6.076;2022-08-20T09:57:48;5.30;;;2.40;;
24137;SDS011;17947;50.672;6.076;2022-08-20T10:00:16;4.22;;;2.60;;
24137;SDS011;17947;50.672;6.076;2022-08-20T10:15:44;3.22;;;2.63;;
24137;SDS011;17947;50.672;6.076;2022-08-20T10:18:10;3.33;;;2.60;;
24137;SDS011;17947;50.672;6.076;2022-08-20T10:20:36;3.60;;;2.58;;
24137;SDS011;17947;50.672;6.076;2022-08-20T10:23:02;4.35;;;2.50;;
24137;SDS011;17947;50.672;6.076;2022-08-20T10:25:28;4.45;;;2.50;;
24137;SDS011;17947;50.672;6.076;2022-08-20T10:27:54;3.90;;;2.75;;
24137;SDS011;17947;50.672;6.076;2022-08-20T10:30:21;3.45;;;2.60;;
24137;SDS011;17947;50.672;6.076;2022-08-20T10:32:47;3.25;;;2.78;;
24137;SDS011;17947;50.672;6.076;2022-08-20T10:35:13;3.90;;;2.88;;
24137;SDS011;17947;50.672;6.076;2022-08-20T10:37:39;3.10;;;2.80;;
24137;SDS011;17947;50.672;6.076;2022-08-20T10:40:05;3.78;;;2.60;;
24137;SDS011;17947;50.672;6.076;2022-08-20T10:42:32;3.30;;;2.70;;
24137;SDS011;17947;50.672;6.076;2022-08-20T10:44:58;4.20;;;2.90;;
24137;SDS011;17947;50.672;6.076;2022-08-20T10:47:25;5.82;;;2.95;;
24137;SDS011;17947;50.672;6.076;2022-08-20T10:49:52;2.95;;;2.65;;
24137;SDS011;17947;50.672;6.076;2022-08-20T10:52:18;4.53;;;2.85;;
24137;SDS011;17947;50.672;6.076;2022-08-20T10:54:45;5.43;;;2.88;;
24137;SDS011;17947;50.672;6.076;2022-08-20T10:57:18;5.80;;;2.78;;
24137;SDS011;17947;50.672;6.076;2022-08-20T10:59:45;5.20;;;2.92;;
24137;SDS011;17947;50.672;6.076;2022-08-20T11:02:12;5.57;;;2.80;;
24137;SDS011;17947;50.672;6.076;2022-08-20T11:04:38;3.80;;;3.10;;
24137;SDS011;17947;50.672;6.076;2022-08-20T11:09:36;4.03;;;2.80;;
24137;SDS011;17947;50.672;6.076;2022-08-20T11:12:03;6.20;;;3.25;;
24137;SDS011;17947;50.672;6.076;2022-08-20T11:14:29;4.97;;;2.95;;
24137;SDS011;17947;50.672;6.076;2022-08-20T11:16:55;4.70;;;3.28;;
24137;SDS011;17947;50.672;6.076;2022-08-20T11:19:21;3.70;;;3.00;;
24137;SDS011;17947;50.672;6.076;2022-08-20T11:21:47;5.38;;;3.22;;
24137;SDS011;17947;50.672;6.076;2022-08-20T11:24:13;7.97;;;3.15;;
24137;SDS011;17947;50.672;6.076;2022-08-20T11:26:39;4.15;;;3.10;;
24137;SDS011;17947;50.672;6.076;2022-08-20T11:29:05;6.72;;;3.03;;
24137;SDS011;17947;50.672;6.076;2022-08-20T11:31:31;4.88;;;3.00;;
24137;SDS011;17947;50.672;6.076;2022-08-20T11:33:57;3.65;;;3.00;;
24137;SDS011;17947;50.672;6.076;2022-08-20T11:36:23;4.28;;;2.97;;
24137;SDS011;17947;50.672;6.076;2022-08-20T11:38:50;4.03;;;2.90;;
24137;SDS011;17947;50.672;6.076;2022-08-20T11:41:17;5.93;;;3.35;;
24137;SDS011;17947;50.672;6.076;2022-08-20T11:43:43;4.22;;;3.03;;
24137;SDS011;17947;50.672;6.076;2022-08-20T11:46:09;3.97;;;2.83;;
24137;SDS011;17947;50.672;6.076;2022-08-20T11:48:35;4.60;;;2.95;;
24137;SDS011;17947;50.672;6.076;2022-08-20T11:51:01;4.30;;;3.08;;
24137;SDS011;17947;50.672;6.076;2022-08-20T11:53:27;5.18;;;2.95;;
24137;SDS011;17947;50.672;6.076;2022-08-20T11:55:54;4.88;;;3.15;;
24137;SDS011;17947;50.672;6.076;2022-08-20T11:58:20;5.63;;;3.25;;
24137;SDS011;17947;50.672;6.076;2022-08-20T12:00:46;4.28;;;2.90;;
24137;SDS011;17947;50.672;6.076;2022-08-20T12:03:13;5.47;;;3.20;;
24137;SDS011;17947;50.672;6.076;2022-08-20T12:05:40;5.50;;;3.50;;
24137;SDS011;17947;50.672;6.076;2022-08-20T12:08:06;4.93;;;3.45;;
24137;SDS011;17947;50.672;6.076;2022-08-20T12:10:33;5.75;;;3.30;;
24137;SDS011;17947;50.672;6.076;2022-08-20T12:12:59;3.78;;;2.83;;
24137;SDS011;17947;50.672;6.076;2022-08-20T12:15:26;5.80;;;3.50;;
24137;SDS011;17947;50.672;6.076;2022-08-20T12:17:52;5.13;;;3.33;;
24137;SDS011;17947;50.672;6.076;2022-08-20T12:20:18;3.88;;;3.17;;
24137;SDS011;17947;50.672;6.076;2022-08-20T12:22:44;5.45;;;3.45;;
24137;SDS011;17947;50.672;6.076;2022-08-20T12:25:10;6.53;;;3.30;;
24137;SDS011;17947;50.672;6.076;2022-08-20T12:27:37;4.78;;;3.20;;
24137;SDS011;17947;50.672;6.076;2022-08-20T12:30:06;4.38;;;3.05;;
24137;SDS011;17947;50.672;6.076;2022-08-20T12:32:32;4.53;;;2.97;;
24137;SDS011;17947;50.672;6.076;2022-08-20T12:34:59;4.40;;;2.97;;
24137;SDS011;17947;50.672;6.076;2022-08-20T12:37:26;4.47;;;3.00;;
24137;SDS011;17947;50.672;6.076;2022-08-20T12:39:54;5.80;;;3.35;;
24137;SDS011;17947;50.672;6.076;2022-08-20T12:42:20;4.72;;;2.95;;
24137;SDS011;17947;50.672;6.076;2022-08-20T12:44:46;3.58;;;2.67;;
24137;SDS011;17947;50.672;6.076;2022-08-20T12:47:14;4.43;;;2.97;;
24137;SDS011;17947;50.672;6.076;2022-08-20T12:49:47;3.42;;;2.58;;
24137;SDS011;17947;50.672;6.076;2022-08-20T12:52:14;5.35;;;3.30;;
24137;SDS011;17947;50.672;6.076;2022-08-20T12:54:41;4.55;;;2.80;;
24137;SDS011;17947;50.672;6.076;2022-08-20T12:57:12;3.53;;;2.97;;
24137;SDS011;17947;50.672;6.076;2022-08-20T12:59:38;4.30;;;3.00;;
24137;SDS011;17947;50.672;6.076;2022-08-20T13:02:04;4.10;;;2.72;;
24137;SDS011;17947;50.672;6.076;2022-08-20T13:04:30;4.32;;;2.80;;
24137;SDS011;17947;50.672;6.076;2022-08-20T13:06:59;3.83;;;3.10;;
24137;SDS011;17947;50.672;6.076;2022-08-20T13:09:25;4.25;;;2.88;;
24137;SDS011;17947;50.672;6.076;2022-08-20T13:11:51;4.82;;;3.10;;
24137;SDS011;17947;50.672;6.076;2022-08-20T13:14:17;4.18;;;2.70;;
24137;SDS011;17947;50.672;6.076;2022-08-20T13:16:43;5.13;;;3.03;;
24137;SDS011;17947;50.672;6.076;2022-08-20T13:19:09;3.83;;;2.70;;
24137;SDS011;17947;50.672;6.076;2022-08-20T13:21:35;2.97;;;2.65;;
24137;SDS011;17947;50.672;6.076;2022-08-20T13:24:02;2.72;;;2.50;;
24137;SDS011;17947;50.672;6.076;2022-08-20T13:26:28;4.22;;;2.78;;
24137;SDS011;17947;50.672;6.076;2022-08-20T13:28:54;3.53;;;2.67;;
24137;SDS011;17947;50.672;6.076;2022-08-20T13:31:20;3.47;;;2.50;;
24137;SDS011;17947;50.672;6.076;2022-08-20T13:33:46;3.05;;;2.60;;
24137;SDS011;17947;50.672;6.076;2022-08-20T13:36:12;3.22;;;2.75;;
24137;SDS011;17947;50.672;6.076;2022-08-20T13:38:38;4.20;;;2.67;;
24137;SDS011;17947;50.672;6.076;2022-08-20T13:41:04;5.18;;;2.40;;
24137;SDS011;17947;50.672;6.076;2022-08-20T13:43:30;4.53;;;2.70;;
24137;SDS011;17947;50.672;6.076;2022-08-20T13:45:56;2.50;;;2.30;;
24137;SDS011;17947;50.672;6.076;2022-08-20T13:48:22;3.53;;;2.40;;
24137;SDS011;17947;50.672;6.076;2022-08-20T13:50:48;3.00;;;2.67;;
24137;SDS011;17947;50.672;6.076;2022-08-20T13:53:14;3.70;;;2.45;;
24137;SDS011;17947;50.672;6.076;2022-08-20T13:55:40;3.75;;;2.40;;
24137;SDS011;17947;50.672;6.076;2022-08-20T13:58:06;3.00;;;2.40;;
24137;SDS011;17947;50.672;6.076;2022-08-20T14:00:33;4.05;;;2.50;;
24137;SDS011;17947;50.672;6.076;2022-08-20T14:03:00;3.85;;;2.60;;
24137;SDS011;17947;50.672;6.076;2022-08-20T14:05:26;3.75;;;2.25;;
24137;SDS011;17947;50.672;6.076;2022-08-20T14:07:52;3.72;;;2.67;;
24137;SDS011;17947;50.672;6.076;2022-08-20T14:10:22;4.55;;;2.90;;
24137;SDS011;17947;50.672;6.076;2022-08-20T14:12:50;3.92;;;2.67;;
24137;SDS011;17947;50.672;6.076;2022-08-20T14:15:16;3.72;;;2.33;;
24137;SDS011;17947;50.672;6.076;2022-08-20T14:17:48;2.95;;;2.20;;
24137;SDS011;17947;50.672;6.076;2022-08-20T14:20:15;4.25;;;2.50;;
24137;SDS011;17947;50.672;6.076;2022-08-20T14:22:42;3.25;;;2.30;;
24137;SDS011;17947;50.672;6.076;2022-08-20T14:25:09;6.68;;;2.33;;
24137;SDS011;17947;50.672;6.076;2022-08-20T14:27:35;5.93;;;2.20;;
24137;SDS011;17947;50.672;6.076;2022-08-20T14:30:03;3.55;;;2.45;;
24137;SDS011;17947;50.672;6.076;2022-08-20T14:32:29;4.28;;;2.47;;
24137;SDS011;17947;50.672;6.076;2022-08-20T14:34:55;3.58;;;2.20;;
24137;SDS011;17947;50.672;6.076;2022-08-20T14:37:28;4.45;;;2.10;;
24137;SDS011;17947;50.672;6.076;2022-08-20T14:39:55;2.63;;;1.90;;
24137;SDS011;17947;50.672;6.076;2022-08-20T14:42:22;5.00;;;2.20;;
24137;SDS011;17947;50.672;6.076;2022-08-20T14:44:49;3.10;;;2.20;;
24137;SDS011;17947;50.672;6.076;2022-08-20T14:47:16;2.65;;;2.30;;
24137;SDS011;17947;50.672;6.076;2022-08-20T14:49:43;3.08;;;2.30;;
24137;SDS011;17947;50.672;6.076;2022-08-20T14:52:09;3.00;;;2.30;;
24137;SDS011;17947;50.672;6.076;2022-08-20T14:54:35;3.92;;;2.35;;
24137;SDS011;17947;50.672;6.076;2022-08-20T14:57:01;5.40;;;2.40;;
24137;SDS011;17947;50.672;6.076;2022-08-20T14:59:27;2.65;;;2.28;;
24137;SDS011;17947;50.672;6.076;2022-08-20T15:01:53;2.75;;;1.90;;
24137;SDS011;17947;50.672;6.076;2022-08-20T15:04:20;3.40;;;2.38;;
24137;SDS011;17947;50.672;6.076;2022-08-20T15:06:46;3.92;;;2.10;;
24137;SDS011;17947;50.672;6.076;2022-08-20T15:09:12;4.05;;;2.13;;
24137;SDS011;17947;50.672;6.076;2022-08-20T15:11:38;3.13;;;2.00;;